sensor_id;sensor_type;location;lat;lon;timestamp;P1;durP1;ratioP1;P2;durP2;ratioP2
35634;SDS011;21757;43.610;1.440;2023-06-22T00:00:50;7.38;;;4.40;;
35634;SDS011;21757;43.610;1.440;2023-06-22T00:03:17;14.77;;;10.82;;
35634;SDS011;21757;43.610;1.440;2023-06-22T00:05:43;21.23;;;13.88;;
35634;SDS011;21757;43.610;1.440;2023-06-22T00:08:10;11.15;;;7.43;;
35634;SDS011;21757;43.610;1.440;2023-06-22T00:10:35;7.88;;;4.65;;
35634;SDS011;21757;43.610;1.440;2023-06-22T00:13:01;6.72;;;4.20;;
35634;SDS011;21757;43.610;1.440;2023-06-22T00:15:27;6.95;;;3.95;;
35634;SDS011;21757;43.610;1.440;2023-06-22T00:17:53;7.80;;;4.70;;
35634;SDS011;21757;43.610;1.440;2023-06-22T00:20:18;9.13;;;4.88;;
35634;SDS011;21757;43.610;1.440;2023-06-22T00:22:44;9.43;;;5.78;;
35634;SDS011;21757;43.610;1.440;2023-06-22T00:25:10;9.23;;;5.85;;
35634;SDS011;21757;43.610;1.440;2023-06-22T00:27:36;8.75;;;4.55;;
35634;SDS011;21757;43.610;1.440;2023-06-22T00:30:02;6.85;;;4.57;;
35634;SDS011;21757;43.610;1.440;2023-06-22T00:32:28;10.30;;;7.40;;
35634;SDS011;21757;43.610;1.440;2023-06-22T00:34:54;6.97;;;4.93;;
35634;SDS011;21757;43.610;1.440;2023-06-22T00:37:20;7.00;;;4.15;;
35634;SDS011;21757;43.610;1.440;2023-06-22T00:39:50;11.32;;;4.97;;
35634;SDS011;21757;43.610;1.440;2023-06-22T00:42:16;9.48;;;4.97;;
35634;SDS011;21757;43.610;1.440;2023-06-22T00:44:43;6.82;;;4.40;;
35634;SDS011;21757;43.610;1.440;2023-06-22T00:47:10;6.80;;;4.45;;
35634;SDS011;21757;43.610;1.440;2023-06-22T00:49:38;12.68;;;6.15;;
35634;SDS011;21757;43.610;1.440;2023-06-22T00:52:04;10.00;;;6.05;;
35634;SDS011;21757;43.610;1.440;2023-06-22T00:54:38;7.82;;;5.00;;
35634;SDS011;21757;43.610;1.440;2023-06-22T00:57:13;7.72;;;4.78;;
35634;SDS011;21757;43.610;1.440;2023-06-22T00:59:41;9.43;;;5.60;;
35634;SDS011;21757;43.610;1.440;2023-06-22T01:02:07;9.02;;;5.25;;
35634;SDS011;21757;43.610;1.440;2023-06-22T01:04:35;7.35;;;5.63;;
35634;SDS011;21757;43.610;1.440;2023-06-22T01:09:49;7.75;;;5.22;;
35634;SDS011;21757;43.610;1.440;2023-06-22T01:12:40;8.55;;;5.38;;
35634;SDS011;21757;43.610;1.440;2023-06-22T01:15:11;10.00;;;4.80;;
35634;SDS011;21757;43.610;1.440;2023-06-22T01:17:45;7.15;;;4.30;;
35634;SDS011;21757;43.610;1.440;2023-06-22T01:20:13;8.48;;;4.28;;
35634;SDS011;21757;43.610;1.440;2023-06-22T01:25:47;31.55;;;16.05;;
35634;SDS011;21757;43.610;1.440;2023-06-22T01:28:38;9.68;;;5.47;;
35634;SDS011;21757;43.610;1.440;2023-06-22T01:31:09;15.30;;;7.20;;
35634;SDS011;21757;43.610;1.440;2023-06-22T01:33:37;7.32;;;4.63;;
35634;SDS011;21757;43.610;1.440;2023-06-22T01:36:05;11.20;;;7.13;;
35634;SDS011;21757;43.610;1.440;2023-06-22T01:38:32;7.40;;;3.97;;
35634;SDS011;21757;43.610;1.440;2023-06-22T01:40:58;6.65;;;3.45;;
35634;SDS011;21757;43.610;1.440;2023-06-22T01:43:26;5.32;;;2.83;;
35634;SDS011;21757;43.610;1.440;2023-06-22T01:45:54;3.95;;;2.10;;
35634;SDS011;21757;43.610;1.440;2023-06-22T01:48:23;4.13;;;2.80;;
35634;SDS011;21757;43.610;1.440;2023-06-22T01:50:51;2.88;;;1.40;;
35634;SDS011;21757;43.610;1.440;2023-06-22T01:53:19;3.33;;;1.50;;
35634;SDS011;21757;43.610;1.440;2023-06-22T01:55:46;3.78;;;1.95;;
35634;SDS011;21757;43.610;1.440;2023-06-22T01:58:12;4.40;;;2.17;;
35634;SDS011;21757;43.610;1.440;2023-06-22T02:00:38;4.90;;;2.30;;
35634;SDS011;21757;43.610;1.440;2023-06-22T02:03:08;3.53;;;1.90;;
35634;SDS011;21757;43.610;1.440;2023-06-22T02:06:15;4.80;;;1.95;;
35634;SDS011;21757;43.610;1.440;2023-06-22T02:08:41;2.70;;;1.80;;
35634;SDS011;21757;43.610;1.440;2023-06-22T02:11:11;3.08;;;2.08;;
35634;SDS011;21757;43.610;1.440;2023-06-22T02:13:39;6.60;;;2.10;;
35634;SDS011;21757;43.610;1.440;2023-06-22T02:16:08;3.55;;;1.70;;
35634;SDS011;21757;43.610;1.440;2023-06-22T02:18:37;5.60;;;1.88;;
35634;SDS011;21757;43.610;1.440;2023-06-22T02:21:05;3.10;;;1.88;;
35634;SDS011;21757;43.610;1.440;2023-06-22T02:23:31;5.50;;;1.83;;
35634;SDS011;21757;43.610;1.440;2023-06-22T02:25:59;4.38;;;1.50;;
35634;SDS011;21757;43.610;1.440;2023-06-22T02:28:26;5.82;;;1.85;;
35634;SDS011;21757;43.610;1.440;2023-06-22T02:30:51;4.70;;;1.58;;
35634;SDS011;21757;43.610;1.440;2023-06-22T02:33:17;4.05;;;1.80;;
35634;SDS011;21757;43.610;1.440;2023-06-22T02:35:42;4.43;;;1.70;;
35634;SDS011;21757;43.610;1.440;2023-06-22T02:38:13;3.03;;;1.52;;
35634;SDS011;21757;43.610;1.440;2023-06-22T02:40:39;3.53;;;1.60;;
35634;SDS011;21757;43.610;1.440;2023-06-22T02:43:05;5.10;;;2.33;;
35634;SDS011;21757;43.610;1.440;2023-06-22T02:45:30;5.68;;;1.95;;
35634;SDS011;21757;43.610;1.440;2023-06-22T02:47:56;5.70;;;1.90;;
35634;SDS011;21757;43.610;1.440;2023-06-22T02:50:22;3.55;;;1.60;;
35634;SDS011;21757;43.610;1.440;2023-06-22T02:52:48;5.28;;;2.20;;
35634;SDS011;21757;43.610;1.440;2023-06-22T02:55:13;7.28;;;2.25;;
35634;SDS011;21757;43.610;1.440;2023-06-22T02:57:39;5.35;;;2.20;;
35634;SDS011;21757;43.610;1.440;2023-06-22T03:00:09;8.02;;;1.83;;
35634;SDS011;21757;43.610;1.440;2023-06-22T03:02:45;5.57;;;2.13;;
35634;SDS011;21757;43.610;1.440;2023-06-22T03:05:12;7.03;;;2.35;;
35634;SDS011;21757;43.610;1.440;2023-06-22T03:07:43;4.50;;;1.70;;
35634;SDS011;21757;43.610;1.440;2023-06-22T03:10:09;5.55;;;2.33;;
35634;SDS011;21757;43.610;1.440;2023-06-22T03:12:36;6.57;;;2.22;;
35634;SDS011;21757;43.610;1.440;2023-06-22T03:15:04;6.35;;;1.90;;
35634;SDS011;21757;43.610;1.440;2023-06-22T03:17:31;4.22;;;1.90;;
35634;SDS011;21757;43.610;1.440;2023-06-22T03:19:56;5.78;;;2.40;;
35634;SDS011;21757;43.610;1.440;2023-06-22T03:22:22;7.40;;;2.13;;
35634;SDS011;21757;43.610;1.440;2023-06-22T03:24:48;3.83;;;2.10;;
35634;SDS011;21757;43.610;1.440;2023-06-22T03:27:13;6.45;;;2.47;;
35634;SDS011;21757;43.610;1.440;2023-06-22T03:29:39;3.97;;;2.40;;
35634;SDS011;21757;43.610;1.440;2023-06-22T03:32:05;9.15;;;2.85;;
35634;SDS011;21757;43.610;1.440;2023-06-22T03:34:31;4.22;;;2.25;;
35634;SDS011;21757;43.610;1.440;2023-06-22T03:37:03;8.48;;;2.28;;
35634;SDS011;21757;43.610;1.440;2023-06-22T03:39:29;5.20;;;2.40;;
35634;SDS011;21757;43.610;1.440;2023-06-22T03:41:54;5.47;;;2.40;;
35634;SDS011;21757;43.610;1.440;2023-06-22T03:44:20;5.88;;;3.30;;
35634;SDS011;21757;43.610;1.440;2023-06-22T03:46:46;5.75;;;2.78;;
35634;SDS011;21757;43.610;1.440;2023-06-22T03:49:11;6.57;;;2.60;;
35634;SDS011;21757;43.610;1.440;2023-06-22T03:51:37;3.53;;;2.80;;
35634;SDS011;21757;43.610;1.440;2023-06-22T03:54:03;7.53;;;3.08;;
35634;SDS011;21757;43.610;1.440;2023-06-22T03:56:29;8.23;;;3.45;;
35634;SDS011;21757;43.610;1.440;2023-06-22T03:58:55;6.13;;;3.58;;
35634;SDS011;21757;43.610;1.440;2023-06-22T04:01:21;6.00;;;2.97;;
35634;SDS011;21757;43.610;1.440;2023-06-22T04:03:47;14.52;;;3.90;;
35634;SDS011;21757;43.610;1.440;2023-06-22T04:06:14;5.63;;;3.60;;
35634;SDS011;21757;43.610;1.440;2023-06-22T04:08:40;7.45;;;2.90;;
35634;SDS011;21757;43.610;1.440;2023-06-22T04:11:06;7.18;;;3.45;;
35634;SDS011;21757;43.610;1.440;2023-06-22T04:13:31;8.30;;;3.70;;
35634;SDS011;21757;43.610;1.440;2023-06-22T04:15:57;9.80;;;3.97;;
35634;SDS011;21757;43.610;1.440;2023-06-22T04:18:23;9.93;;;3.72;;
35634;SDS011;21757;43.610;1.440;2023-06-22T04:20:48;6.32;;;3.40;;
35634;SDS011;21757;43.610;1.440;2023-06-22T04:23:14;6.25;;;3.72;;
35634;SDS011;21757;43.610;1.440;2023-06-22T04:25:40;6.72;;;3.38;;
35634;SDS011;21757;43.610;1.440;2023-06-22T04:28:05;7.40;;;4.32;;
35634;SDS011;21757;43.610;1.440;2023-06-22T04:30:37;8.48;;;3.88;;
35634;SDS011;21757;43.610;1.440;2023-06-22T04:33:11;8.60;;;4.00;;
35634;SDS011;21757;43.610;1.440;2023-06-22T04:35:37;8.68;;;4.25;;
35634;SDS011;21757;43.610;1.440;2023-06-22T04:38:06;7.90;;;4.25;;
35634;SDS011;21757;43.610;1.440;2023-06-22T04:40:32;7.68;;;4.57;;
35634;SDS011;21757;43.610;1.440;2023-06-22T04:42:58;9.50;;;3.70;;
35634;SDS011;21757;43.610;1.440;2023-06-22T04:45:27;8.27;;;3.63;;
35634;SDS011;21757;43.610;1.440;2023-06-22T04:47:54;7.60;;;3.75;;
35634;SDS011;21757;43.610;1.440;2023-06-22T04:50:20;7.43;;;3.80;;
35634;SDS011;21757;43.610;1.440;2023-06-22T04:52:49;5.15;;;3.80;;
35634;SDS011;21757;43.610;1.440;2023-06-22T04:55:15;8.55;;;3.70;;
35634;SDS011;21757;43.610;1.440;2023-06-22T04:57:44;8.23;;;3.67;;
35634;SDS011;21757;43.610;1.440;2023-06-22T05:00:14;6.82;;;3.78;;
35634;SDS011;21757;43.610;1.440;2023-06-22T05:02:45;8.65;;;3.80;;
35634;SDS011;21757;43.610;1.440;2023-06-22T05:05:11;10.13;;;3.70;;
35634;SDS011;21757;43.610;1.440;2023-06-22T05:07:45;10.43;;;4.28;;
35634;SDS011;21757;43.610;1.440;2023-06-22T05:10:13;11.27;;;6.15;;
35634;SDS011;21757;43.610;1.440;2023-06-22T05:12:40;8.90;;;5.50;;
35634;SDS011;21757;43.610;1.440;2023-06-22T05:15:06;8.93;;;5.40;;
35634;SDS011;21757;43.610;1.440;2023-06-22T05:17:33;8.98;;;5.45;;
35634;SDS011;21757;43.610;1.440;2023-06-22T05:19:59;6.30;;;4.97;;
35634;SDS011;21757;43.610;1.440;2023-06-22T05:22:25;10.85;;;6.60;;
35634;SDS011;21757;43.610;1.440;2023-06-22T05:24:51;14.93;;;8.38;;
35634;SDS011;21757;43.610;1.440;2023-06-22T05:27:16;11.50;;;6.00;;
35634;SDS011;21757;43.610;1.440;2023-06-22T05:29:42;11.63;;;6.60;;
35634;SDS011;21757;43.610;1.440;2023-06-22T05:32:08;8.43;;;6.22;;
35634;SDS011;21757;43.610;1.440;2023-06-22T05:34:34;11.25;;;6.72;;
35634;SDS011;21757;43.610;1.440;2023-06-22T05:37:00;10.55;;;6.47;;
35634;SDS011;21757;43.610;1.440;2023-06-22T05:39:25;9.93;;;6.43;;
35634;SDS011;21757;43.610;1.440;2023-06-22T05:41:51;12.88;;;7.78;;
35634;SDS011;21757;43.610;1.440;2023-06-22T05:44:17;9.63;;;6.55;;
35634;SDS011;21757;43.610;1.440;2023-06-22T05:46:44;10.25;;;6.93;;
35634;SDS011;21757;43.610;1.440;2023-06-22T05:49:14;12.07;;;6.75;;
35634;SDS011;21757;43.610;1.440;2023-06-22T05:51:40;8.18;;;6.50;;
35634;SDS011;21757;43.610;1.440;2023-06-22T05:54:06;10.30;;;6.68;;
35634;SDS011;21757;43.610;1.440;2023-06-22T05:56:33;12.63;;;7.85;;
35634;SDS011;21757;43.610;1.440;2023-06-22T05:58:58;10.80;;;7.20;;
35634;SDS011;21757;43.610;1.440;2023-06-22T06:01:24;20.42;;;9.15;;
35634;SDS011;21757;43.610;1.440;2023-06-22T06:03:51;20.60;;;8.65;;
35634;SDS011;21757;43.610;1.440;2023-06-22T06:06:17;22.27;;;7.75;;
35634;SDS011;21757;43.610;1.440;2023-06-22T06:08:47;10.80;;;6.57;;
35634;SDS011;21757;43.610;1.440;2023-06-22T06:11:13;10.65;;;6.55;;
35634;SDS011;21757;43.610;1.440;2023-06-22T06:13:39;14.35;;;7.22;;
35634;SDS011;21757;43.610;1.440;2023-06-22T06:16:05;14.45;;;7.38;;
35634;SDS011;21757;43.610;1.440;2023-06-22T06:18:30;15.30;;;7.90;;
35634;SDS011;21757;43.610;1.440;2023-06-22T06:20:56;11.80;;;7.78;;
35634;SDS011;21757;43.610;1.440;2023-06-22T06:23:22;15.23;;;8.90;;
35634;SDS011;21757;43.610;1.440;2023-06-22T06:25:47;15.63;;;7.93;;
35634;SDS011;21757;43.610;1.440;2023-06-22T06:28:13;12.52;;;7.40;;
35634;SDS011;21757;43.610;1.440;2023-06-22T06:30:39;11.27;;;7.50;;
35634;SDS011;21757;43.610;1.440;2023-06-22T06:33:06;10.98;;;7.30;;
35634;SDS011;21757;43.610;1.440;2023-06-22T06:35:33;9.15;;;6.80;;
35634;SDS011;21757;43.610;1.440;2023-06-22T06:37:59;12.00;;;7.43;;
35634;SDS011;21757;43.610;1.440;2023-06-22T06:40:25;12.27;;;7.00;;
35634;SDS011;21757;43.610;1.440;2023-06-22T06:42:51;12.48;;;7.43;;
35634;SDS011;21757;43.610;1.440;2023-06-22T06:45:20;10.38;;;7.13;;
35634;SDS011;21757;43.610;1.440;2023-06-22T06:47:47;11.00;;;7.60;;
35634;SDS011;21757;43.610;1.440;2023-06-22T06:50:14;12.98;;;7.22;;
35634;SDS011;21757;43.610;1.440;2023-06-22T06:52:40;13.82;;;6.78;;
35634;SDS011;21757;43.610;1.440;2023-06-22T06:55:06;10.73;;;5.93;;
35634;SDS011;21757;43.610;1.440;2023-06-22T06:57:36;9.55;;;6.10;;
35634;SDS011;21757;43.610;1.440;2023-06-22T07:00:07;9.95;;;6.47;;
35634;SDS011;21757;43.610;1.440;2023-06-22T07:02:44;11.48;;;6.43;;
35634;SDS011;21757;43.610;1.440;2023-06-22T07:05:12;11.73;;;6.50;;
35634;SDS011;21757;43.610;1.440;2023-06-22T07:07:38;13.77;;;6.38;;
35634;SDS011;21757;43.610;1.440;2023-06-22T07:10:04;12.23;;;6.35;;
35634;SDS011;21757;43.610;1.440;2023-06-22T07:12:31;9.98;;;6.35;;
35634;SDS011;21757;43.610;1.440;2023-06-22T07:15:06;9.55;;;5.88;;
35634;SDS011;21757;43.610;1.440;2023-06-22T07:17:34;8.48;;;5.65;;
35634;SDS011;21757;43.610;1.440;2023-06-22T07:20:00;6.40;;;4.75;;
35634;SDS011;21757;43.610;1.440;2023-06-22T07:22:27;13.30;;;6.28;;
35634;SDS011;21757;43.610;1.440;2023-06-22T07:24:52;10.45;;;4.68;;
35634;SDS011;21757;43.610;1.440;2023-06-22T07:27:18;7.07;;;5.32;;
35634;SDS011;21757;43.610;1.440;2023-06-22T07:29:45;6.95;;;4.93;;
35634;SDS011;21757;43.610;1.440;2023-06-22T07:32:10;8.93;;;5.13;;
35634;SDS011;21757;43.610;1.440;2023-06-22T07:34:36;8.23;;;5.05;;
35634;SDS011;21757;43.610;1.440;2023-06-22T07:37:02;6.97;;;4.97;;
35634;SDS011;21757;43.610;1.440;2023-06-22T07:39:29;6.93;;;4.82;;
35634;SDS011;21757;43.610;1.440;2023-06-22T07:41:55;9.70;;;5.15;;
35634;SDS011;21757;43.610;1.440;2023-06-22T07:44:21;11.18;;;4.30;;
35634;SDS011;21757;43.610;1.440;2023-06-22T07:46:46;7.80;;;4.30;;
35634;SDS011;21757;43.610;1.440;2023-06-22T07:49:12;4.18;;;3.75;;
35634;SDS011;21757;43.610;1.440;2023-06-22T07:51:38;8.40;;;3.92;;
35634;SDS011;21757;43.610;1.440;2023-06-22T07:54:04;6.97;;;4.07;;
35634;SDS011;21757;43.610;1.440;2023-06-22T07:56:29;13.20;;;4.60;;
35634;SDS011;21757;43.610;1.440;2023-06-22T07:58:55;9.60;;;4.45;;
35634;SDS011;21757;43.610;1.440;2023-06-22T08:01:23;6.80;;;4.07;;
35634;SDS011;21757;43.610;1.440;2023-06-22T08:03:48;8.68;;;4.10;;
35634;SDS011;21757;43.610;1.440;2023-06-22T08:06:14;7.57;;;4.28;;
35634;SDS011;21757;43.610;1.440;2023-06-22T08:08:41;8.05;;;3.95;;
35634;SDS011;21757;43.610;1.440;2023-06-22T08:11:07;7.32;;;4.20;;
35634;SDS011;21757;43.610;1.440;2023-06-22T08:13:33;6.03;;;4.45;;
35634;SDS011;21757;43.610;1.440;2023-06-22T08:15:59;7.53;;;4.95;;
35634;SDS011;21757;43.610;1.440;2023-06-22T08:18:24;7.40;;;5.30;;
35634;SDS011;21757;43.610;1.440;2023-06-22T08:20:50;7.30;;;5.43;;
35634;SDS011;21757;43.610;1.440;2023-06-22T08:23:16;13.27;;;8.70;;
35634;SDS011;21757;43.610;1.440;2023-06-22T08:25:42;7.18;;;5.15;;
35634;SDS011;21757;43.610;1.440;2023-06-22T08:28:08;6.38;;;4.45;;
35634;SDS011;21757;43.610;1.440;2023-06-22T08:30:33;6.45;;;4.97;;
35634;SDS011;21757;43.610;1.440;2023-06-22T08:32:59;7.22;;;4.90;;
35634;SDS011;21757;43.610;1.440;2023-06-22T08:35:25;4.80;;;4.30;;
35634;SDS011;21757;43.610;1.440;2023-06-22T08:37:51;8.02;;;5.03;;
35634;SDS011;21757;43.610;1.440;2023-06-22T08:40:19;5.63;;;4.47;;
35634;SDS011;21757;43.610;1.440;2023-06-22T08:42:46;5.57;;;4.93;;
35634;SDS011;21757;43.610;1.440;2023-06-22T08:45:12;7.28;;;4.32;;
35634;SDS011;21757;43.610;1.440;2023-06-22T08:47:39;5.50;;;3.92;;
35634;SDS011;21757;43.610;1.440;2023-06-22T08:50:06;4.78;;;3.75;;
35634;SDS011;21757;43.610;1.440;2023-06-22T08:52:33;4.95;;;3.92;;
35634;SDS011;21757;43.610;1.440;2023-06-22T08:54:59;6.55;;;4.18;;
35634;SDS011;21757;43.610;1.440;2023-06-22T08:57:25;6.43;;;4.15;;
35634;SDS011;21757;43.610;1.440;2023-06-22T08:59:51;7.47;;;4.50;;
35634;SDS011;21757;43.610;1.440;2023-06-22T09:02:18;6.78;;;4.70;;
35634;SDS011;21757;43.610;1.440;2023-06-22T09:04:45;7.15;;;4.22;;
35634;SDS011;21757;43.610;1.440;2023-06-22T09:07:11;6.22;;;4.13;;
35634;SDS011;21757;43.610;1.440;2023-06-22T09:09:36;6.72;;;4.43;;
35634;SDS011;21757;43.610;1.440;2023-06-22T09:12:02;9.05;;;4.88;;
35634;SDS011;21757;43.610;1.440;2023-06-22T09:14:28;8.23;;;4.78;;
35634;SDS011;21757;43.610;1.440;2023-06-22T09:16:54;6.90;;;4.75;;
35634;SDS011;21757;43.610;1.440;2023-06-22T09:19:20;7.97;;;4.75;;
35634;SDS011;21757;43.610;1.440;2023-06-22T09:21:45;6.88;;;4.90;;
35634;SDS011;21757;43.610;1.440;2023-06-22T09:24:11;6.85;;;4.82;;
35634;SDS011;21757;43.610;1.440;2023-06-22T09:26:37;6.95;;;5.00;;
35634;SDS011;21757;43.610;1.440;2023-06-22T09:29:04;8.93;;;5.00;;
35634;SDS011;21757;43.610;1.440;2023-06-22T09:31:31;7.20;;;4.50;;
35634;SDS011;21757;43.610;1.440;2023-06-22T09:33:56;7.80;;;4.45;;
35634;SDS011;21757;43.610;1.440;2023-06-22T09:36:22;6.20;;;4.50;;
35634;SDS011;21757;43.610;1.440;2023-06-22T09:38:48;7.18;;;5.15;;
35634;SDS011;21757;43.610;1.440;2023-06-22T09:41:20;7.45;;;5.32;;
35634;SDS011;21757;43.610;1.440;2023-06-22T09:43:45;6.72;;;4.80;;
35634;SDS011;21757;43.610;1.440;2023-06-22T09:46:11;6.05;;;4.95;;
35634;SDS011;21757;43.610;1.440;2023-06-22T09:48:37;8.73;;;5.43;;
35634;SDS011;21757;43.610;1.440;2023-06-22T09:51:02;7.45;;;5.82;;
35634;SDS011;21757;43.610;1.440;2023-06-22T09:53:28;7.50;;;5.32;;
35634;SDS011;21757;43.610;1.440;2023-06-22T09:55:54;6.22;;;4.75;;
35634;SDS011;21757;43.610;1.440;2023-06-22T09:58:19;6.28;;;5.05;;
35634;SDS011;21757;43.610;1.440;2023-06-22T10:00:45;8.15;;;5.40;;
35634;SDS011;21757;43.610;1.440;2023-06-22T10:03:11;7.40;;;5.13;;
35634;SDS011;21757;43.610;1.440;2023-06-22T10:05:36;7.68;;;5.05;;
35634;SDS011;21757;43.610;1.440;2023-06-22T10:08:02;7.30;;;4.97;;
35634;SDS011;21757;43.610;1.440;2023-06-22T10:10:28;6.15;;;4.75;;
35634;SDS011;21757;43.610;1.440;2023-06-22T10:12:57;7.40;;;5.07;;
35634;SDS011;21757;43.610;1.440;2023-06-22T10:15:27;7.10;;;5.47;;
35634;SDS011;21757;43.610;1.440;2023-06-22T10:17:53;6.70;;;4.63;;
35634;SDS011;21757;43.610;1.440;2023-06-22T10:20:19;6.18;;;4.70;;
35634;SDS011;21757;43.610;1.440;2023-06-22T10:22:45;7.82;;;4.28;;
35634;SDS011;21757;43.610;1.440;2023-06-22T10:25:12;5.47;;;4.30;;
35634;SDS011;21757;43.610;1.440;2023-06-22T10:27:38;7.65;;;4.72;;
35634;SDS011;21757;43.610;1.440;2023-06-22T10:30:07;5.82;;;4.40;;
35634;SDS011;21757;43.610;1.440;2023-06-22T10:32:34;7.15;;;4.95;;
35634;SDS011;21757;43.610;1.440;2023-06-22T10:35:00;7.35;;;5.15;;
35634;SDS011;21757;43.610;1.440;2023-06-22T10:37:25;6.45;;;4.82;;
35634;SDS011;21757;43.610;1.440;2023-06-22T10:39:51;7.43;;;4.95;;
35634;SDS011;21757;43.610;1.440;2023-06-22T10:42:17;6.38;;;5.32;;
35634;SDS011;21757;43.610;1.440;2023-06-22T10:44:42;9.13;;;5.15;;
35634;SDS011;21757;43.610;1.440;2023-06-22T10:47:09;6.25;;;4.82;;
35634;SDS011;21757;43.610;1.440;2023-06-22T10:49:37;9.02;;;4.90;;
35634;SDS011;21757;43.610;1.440;2023-06-22T10:52:06;8.38;;;4.95;;
35634;SDS011;21757;43.610;1.440;2023-06-22T10:54:33;6.78;;;4.43;;
35634;SDS011;21757;43.610;1.440;2023-06-22T10:57:00;5.25;;;4.35;;
35634;SDS011;21757;43.610;1.440;2023-06-22T10:59:26;5.22;;;3.90;;
35634;SDS011;21757;43.610;1.440;2023-06-22T11:01:53;7.40;;;4.38;;
35634;SDS011;21757;43.610;1.440;2023-06-22T11:04:20;6.43;;;4.55;;
35634;SDS011;21757;43.610;1.440;2023-06-22T11:06:46;5.70;;;4.25;;
35634;SDS011;21757;43.610;1.440;2023-06-22T11:09:12;8.77;;;4.43;;
35634;SDS011;21757;43.610;1.440;2023-06-22T11:11:43;8.10;;;4.45;;
35634;SDS011;21757;43.610;1.440;2023-06-22T11:14:09;9.27;;;3.97;;
35634;SDS011;21757;43.610;1.440;2023-06-22T11:16:34;6.10;;;4.30;;
35634;SDS011;21757;43.610;1.440;2023-06-22T11:19:00;6.38;;;4.60;;
35634;SDS011;21757;43.610;1.440;2023-06-22T11:21:26;5.50;;;4.40;;
35634;SDS011;21757;43.610;1.440;2023-06-22T11:23:51;5.38;;;4.30;;
35634;SDS011;21757;43.610;1.440;2023-06-22T11:26:17;11.45;;;4.88;;
35634;SDS011;21757;43.610;1.440;2023-06-22T11:28:43;5.00;;;3.95;;
35634;SDS011;21757;43.610;1.440;2023-06-22T11:31:08;12.95;;;6.50;;
35634;SDS011;21757;43.610;1.440;2023-06-22T11:33:34;6.72;;;5.00;;
35634;SDS011;21757;43.610;1.440;2023-06-22T11:36:00;7.40;;;4.63;;
35634;SDS011;21757;43.610;1.440;2023-06-22T11:38:25;8.65;;;4.50;;
35634;SDS011;21757;43.610;1.440;2023-06-22T11:40:51;7.85;;;4.95;;
35634;SDS011;21757;43.610;1.440;2023-06-22T11:43:17;4.95;;;4.30;;
35634;SDS011;21757;43.610;1.440;2023-06-22T11:45:42;6.72;;;4.70;;
35634;SDS011;21757;43.610;1.440;2023-06-22T11:48:08;7.75;;;4.00;;
35634;SDS011;21757;43.610;1.440;2023-06-22T11:50:34;5.07;;;4.43;;
35634;SDS011;21757;43.610;1.440;2023-06-22T11:53:01;5.78;;;4.07;;
35634;SDS011;21757;43.610;1.440;2023-06-22T11:55:28;8.02;;;3.88;;
35634;SDS011;21757;43.610;1.440;2023-06-22T11:57:54;5.18;;;3.80;;
35634;SDS011;21757;43.610;1.440;2023-06-22T12:00:23;5.80;;;3.70;;
35634;SDS011;21757;43.610;1.440;2023-06-22T12:02:52;5.03;;;4.10;;
35634;SDS011;21757;43.610;1.440;2023-06-22T12:05:21;4.95;;;4.30;;
35634;SDS011;21757;43.610;1.440;2023-06-22T12:07:48;5.78;;;4.20;;
35634;SDS011;21757;43.610;1.440;2023-06-22T12:10:14;4.60;;;3.85;;
35634;SDS011;21757;43.610;1.440;2023-06-22T12:12:40;6.03;;;4.13;;
35634;SDS011;21757;43.610;1.440;2023-06-22T12:15:06;9.05;;;6.70;;
35634;SDS011;21757;43.610;1.440;2023-06-22T12:17:32;6.15;;;4.40;;
35634;SDS011;21757;43.610;1.440;2023-06-22T12:19:59;8.30;;;4.60;;
35634;SDS011;21757;43.610;1.440;2023-06-22T12:22:24;5.90;;;4.20;;
35634;SDS011;21757;43.610;1.440;2023-06-22T12:24:50;5.10;;;3.95;;
35634;SDS011;21757;43.610;1.440;2023-06-22T12:27:16;4.20;;;3.55;;
35634;SDS011;21757;43.610;1.440;2023-06-22T12:29:43;5.10;;;4.60;;
35634;SDS011;21757;43.610;1.440;2023-06-22T12:32:12;7.43;;;4.25;;
35634;SDS011;21757;43.610;1.440;2023-06-22T12:34:39;3.72;;;3.35;;
35634;SDS011;21757;43.610;1.440;2023-06-22T12:37:05;4.43;;;4.00;;
35634;SDS011;21757;43.610;1.440;2023-06-22T12:39:31;6.32;;;3.38;;
35634;SDS011;21757;43.610;1.440;2023-06-22T12:41:57;3.22;;;2.92;;
35634;SDS011;21757;43.610;1.440;2023-06-22T12:44:23;5.20;;;3.20;;
35634;SDS011;21757;43.610;1.440;2023-06-22T12:46:49;4.95;;;3.65;;
35634;SDS011;21757;43.610;1.440;2023-06-22T12:49:15;5.25;;;3.42;;
35634;SDS011;21757;43.610;1.440;2023-06-22T12:51:41;6.15;;;3.35;;
35634;SDS011;21757;43.610;1.440;2023-06-22T12:54:08;3.72;;;3.20;;
35634;SDS011;21757;43.610;1.440;2023-06-22T12:56:33;5.45;;;3.20;;
35634;SDS011;21757;43.610;1.440;2023-06-22T12:58:59;5.25;;;3.10;;
35634;SDS011;21757;43.610;1.440;2023-06-22T13:01:28;3.90;;;3.20;;
35634;SDS011;21757;43.610;1.440;2023-06-22T13:03:55;6.68;;;3.30;;
35634;SDS011;21757;43.610;1.440;2023-06-22T13:06:21;6.70;;;4.28;;
35634;SDS011;21757;43.610;1.440;2023-06-22T13:08:47;3.40;;;2.80;;
35634;SDS011;21757;43.610;1.440;2023-06-22T13:11:12;4.53;;;3.03;;
35634;SDS011;21757;43.610;1.440;2023-06-22T13:13:38;6.18;;;3.08;;
35634;SDS011;21757;43.610;1.440;2023-06-22T13:16:04;6.68;;;3.85;;
35634;SDS011;21757;43.610;1.440;2023-06-22T13:18:30;5.82;;;5.25;;
35634;SDS011;21757;43.610;1.440;2023-06-22T13:20:55;6.47;;;5.43;;
35634;SDS011;21757;43.610;1.440;2023-06-22T13:23:23;7.47;;;4.32;;
35634;SDS011;21757;43.610;1.440;2023-06-22T13:25:48;14.60;;;8.73;;
35634;SDS011;21757;43.610;1.440;2023-06-22T13:28:14;10.13;;;6.75;;
35634;SDS011;21757;43.610;1.440;2023-06-22T13:30:41;21.70;;;13.70;;
35634;SDS011;21757;43.610;1.440;2023-06-22T13:33:07;20.95;;;12.85;;
35634;SDS011;21757;43.610;1.440;2023-06-22T13:35:33;4.70;;;3.67;;
35634;SDS011;21757;43.610;1.440;2023-06-22T13:38:00;10.40;;;7.90;;
35634;SDS011;21757;43.610;1.440;2023-06-22T13:40:26;7.00;;;5.20;;
35634;SDS011;21757;43.610;1.440;2023-06-22T13:42:52;6.53;;;4.60;;
35634;SDS011;21757;43.610;1.440;2023-06-22T13:45:17;6.85;;;4.03;;
35634;SDS011;21757;43.610;1.440;2023-06-22T13:47:48;7.30;;;3.63;;
35634;SDS011;21757;43.610;1.440;2023-06-22T13:50:14;5.93;;;4.13;;
35634;SDS011;21757;43.610;1.440;2023-06-22T13:52:40;7.78;;;4.97;;
35634;SDS011;21757;43.610;1.440;2023-06-22T13:55:06;5.75;;;3.55;;
35634;SDS011;21757;43.610;1.440;2023-06-22T13:57:32;9.02;;;4.25;;
35634;SDS011;21757;43.610;1.440;2023-06-22T13:59:58;4.70;;;3.53;;
35634;SDS011;21757;43.610;1.440;2023-06-22T14:02:25;6.28;;;3.25;;
35634;SDS011;21757;43.610;1.440;2023-06-22T14:04:52;5.63;;;3.88;;
35634;SDS011;21757;43.610;1.440;2023-06-22T14:07:18;5.28;;;3.53;;
35634;SDS011;21757;43.610;1.440;2023-06-22T14:09:45;4.68;;;3.70;;
35634;SDS011;21757;43.610;1.440;2023-06-22T14:12:11;5.25;;;3.33;;
35634;SDS011;21757;43.610;1.440;2023-06-22T14:14:37;4.35;;;3.50;;
35634;SDS011;21757;43.610;1.440;2023-06-22T14:17:04;6.85;;;3.50;;
35634;SDS011;21757;43.610;1.440;2023-06-22T14:19:30;6.38;;;3.30;;
35634;SDS011;21757;43.610;1.440;2023-06-22T14:21:56;4.68;;;3.53;;
35634;SDS011;21757;43.610;1.440;2023-06-22T14:24:22;4.05;;;3.70;;
35634;SDS011;21757;43.610;1.440;2023-06-22T14:26:48;5.35;;;3.90;;
35634;SDS011;21757;43.610;1.440;2023-06-22T14:29:14;4.35;;;3.28;;
35634;SDS011;21757;43.610;1.440;2023-06-22T14:31:40;4.10;;;3.58;;
35634;SDS011;21757;43.610;1.440;2023-06-22T14:34:05;4.65;;;3.10;;
35634;SDS011;21757;43.610;1.440;2023-06-22T14:36:31;5.72;;;3.75;;
35634;SDS011;21757;43.610;1.440;2023-06-22T14:38:57;6.55;;;4.80;;
35634;SDS011;21757;43.610;1.440;2023-06-22T14:41:23;4.32;;;3.63;;
35634;SDS011;21757;43.610;1.440;2023-06-22T14:43:51;4.03;;;3.58;;
35634;SDS011;21757;43.610;1.440;2023-06-22T14:46:18;7.32;;;3.67;;
35634;SDS011;21757;43.610;1.440;2023-06-22T14:48:44;5.13;;;3.40;;